sensor_id;sensor_type;location;lat;lon;timestamp;temperature;humidity
2897;DHT22;1458;49.728;9.228;2023-11-19T00:00:37;8.40;99.90
2897;DHT22;1458;49.728;9.228;2023-11-19T00:03:04;8.40;99.90
2897;DHT22;1458;49.728;9.228;2023-11-19T00:05:33;8.40;99.90
2897;DHT22;1458;49.728;9.228;2023-11-19T00:08:01;8.40;99.90
2897;DHT22;1458;49.728;9.228;2023-11-19T00:10:28;8.50;99.90
2897;DHT22;1458;49.728;9.228;2023-11-19T00:12:56;8.50;99.90
2897;DHT22;1458;49.728;9.228;2023-11-19T00:15:23;8.50;99.90
2897;DHT22;1458;49.728;9.228;2023-11-19T00:17:51;8.50;99.90
2897;DHT22;1458;49.728;9.228;2023-11-19T00:20:19;8.50;99.90
2897;DHT22;1458;49.728;9.228;2023-11-19T00:22:49;8.50;99.90
2897;DHT22;1458;49.728;9.228;2023-11-19T00:25:18;8.60;99.90
2897;DHT22;1458;49.728;9.228;2023-11-19T00:27:46;8.60;99.90
2897;DHT22;1458;49.728;9.228;2023-11-19T00:30:14;8.60;99.90
2897;DHT22;1458;49.728;9.228;2023-11-19T00:32:42;8.60;99.90
2897;DHT22;1458;49.728;9.228;2023-11-19T00:35:11;8.60;99.90
2897;DHT22;1458;49.728;9.228;2023-11-19T00:37:39;8.60;99.90
2897;DHT22;1458;49.728;9.228;2023-11-19T00:40:11;8.70;99.90
2897;DHT22;1458;49.728;9.228;2023-11-19T00:42:38;8.70;99.90
2897;DHT22;1458;49.728;9.228;2023-11-19T00:45:06;8.80;99.90
2897;DHT22;1458;49.728;9.228;2023-11-19T00:47:35;8.80;99.90
2897;DHT22;1458;49.728;9.228;2023-11-19T00:50:03;8.80;99.90
2897;DHT22;1458;49.728;9.228;2023-11-19T00:52:31;8.80;99.90
2897;DHT22;1458;49.728;9.228;2023-11-19T00:54:58;8.80;99.90
2897;DHT22;1458;49.728;9.228;2023-11-19T00:57:27;8.80;99.90
2897;DHT22;1458;49.728;9.228;2023-11-19T00:59:55;8.80;99.90
2897;DHT22;1458;49.728;9.228;2023-11-19T01:02:22;8.90;99.90
2897;DHT22;1458;49.728;9.228;2023-11-19T01:04:49;8.90;99.90
2897;DHT22;1458;49.728;9.228;2023-11-19T01:07:18;8.90;99.90
2897;DHT22;1458;49.728;9.228;2023-11-19T01:09:47;8.90;99.90
2897;DHT22;1458;49.728;9.228;2023-11-19T01:12:15;9.00;99.90
2897;DHT22;1458;49.728;9.228;2023-11-19T01:14:44;9.00;99.90
2897;DHT22;1458;49.728;9.228;2023-11-19T01:17:11;9.00;99.90
2897;DHT22;1458;49.728;9.228;2023-11-19T01:19:38;9.00;99.90
2897;DHT22;1458;49.728;9.228;2023-11-19T01:22:06;9.00;99.90
2897;DHT22;1458;49.728;9.228;2023-11-19T01:24:33;9.00;99.90
2897;DHT22;1458;49.728;9.228;2023-11-19T01:27:00;9.00;99.90
2897;DHT22;1458;49.728;9.228;2023-11-19T01:29:28;9.10;99.90
2897;DHT22;1458;49.728;9.228;2023-11-19T01:31:57;9.10;99.90
2897;DHT22;1458;49.728;9.228;2023-11-19T01:34:24;9.10;99.90
2897;DHT22;1458;49.728;9.228;2023-11-19T01:36:52;9.00;99.90
2897;DHT22;1458;49.728;9.228;2023-11-19T01:39:19;9.00;99.90
2897;DHT22;1458;49.728;9.228;2023-11-19T01:41:47;9.00;99.90
2897;DHT22;1458;49.728;9.228;2023-11-19T01:44:14;9.00;99.90
2897;DHT22;1458;49.728;9.228;2023-11-19T01:46:43;9.00;99.90
2897;DHT22;1458;49.728;9.228;2023-11-19T01:49:14;9.00;99.90
2897;DHT22;1458;49.728;9.228;2023-11-19T01:51:42;9.00;99.90
2897;DHT22;1458;49.728;9.228;2023-11-19T01:54:10;9.10;99.90
2897;DHT22;1458;49.728;9.228;2023-11-19T01:56:39;9.10;99.90
2897;DHT22;1458;49.728;9.228;2023-11-19T01:59:09;9.00;99.90
2897;DHT22;1458;49.728;9.228;2023-11-19T02:01:39;8.90;99.90
2897;DHT22;1458;49.728;9.228;2023-11-19T02:04:07;9.10;99.90
2897;DHT22;1458;49.728;9.228;2023-11-19T02:06:38;9.10;99.90
2897;DHT22;1458;49.728;9.228;2023-11-19T02:09:07;9.20;99.90
2897;DHT22;1458;49.728;9.228;2023-11-19T02:11:36;9.20;99.90
2897;DHT22;1458;49.728;9.228;2023-11-19T02:14:05;9.30;99.90
2897;DHT22;1458;49.728;9.228;2023-11-19T02:16:34;9.30;99.90
2897;DHT22;1458;49.728;9.228;2023-11-19T02:19:01;9.40;99.90
2897;DHT22;1458;49.728;9.228;2023-11-19T02:21:29;9.40;99.90
2897;DHT22;1458;49.728;9.228;2023-11-19T02:23:58;9.40;99.90
2897;DHT22;1458;49.728;9.228;2023-11-19T02:26:32;9.40;99.90
2897;DHT22;1458;49.728;9.228;2023-11-19T02:29:05;9.40;99.90
2897;DHT22;1458;49.728;9.228;2023-11-19T02:31:33;9.50;99.90
2897;DHT22;1458;49.728;9.228;2023-11-19T02:34:01;9.40;99.90
2897;DHT22;1458;49.728;9.228;2023-11-19T02:36:29;9.40;99.90
2897;DHT22;1458;49.728;9.228;2023-11-19T02:38:57;9.40;99.90
2897;DHT22;1458;49.728;9.228;2023-11-19T02:41:25;9.50;99.90
2897;DHT22;1458;49.728;9.228;2023-11-19T02:43:52;9.40;99.90
2897;DHT22;1458;49.728;9.228;2023-11-19T02:46:21;9.50;99.90
2897;DHT22;1458;49.728;9.228;2023-11-19T02:48:49;9.50;99.90
2897;DHT22;1458;49.728;9.228;2023-11-19T02:51:17;9.50;99.90
2897;DHT22;1458;49.728;9.228;2023-11-19T02:53:45;9.50;99.90
2897;DHT22;1458;49.728;9.228;2023-11-19T02:56:14;9.60;99.90
2897;DHT22;1458;49.728;9.228;2023-11-19T02:58:46;9.60;99.90
2897;DHT22;1458;49.728;9.228;2023-11-19T03:01:23;9.70;99.90
2897;DHT22;1458;49.728;9.228;2023-11-19T03:03:56;9.70;99.90
2897;DHT22;1458;49.728;9.228;2023-11-19T03:06:24;9.70;99.90
2897;DHT22;1458;49.728;9.228;2023-11-19T03:08:51;9.70;99.90
2897;DHT22;1458;49.728;9.228;2023-11-19T03:11:19;9.70;99.90
2897;DHT22;1458;49.728;9.228;2023-11-19T03:13:46;9.70;99.90
2897;DHT22;1458;49.728;9.228;2023-11-19T03:16:14;9.70;99.90
2897;DHT22;1458;49.728;9.228;2023-11-19T03:18:44;9.80;99.90
2897;DHT22;1458;49.728;9.228;2023-11-19T03:21:11;9.70;99.90
2897;DHT22;1458;49.728;9.228;2023-11-19T03:23:39;9.70;99.90
2897;DHT22;1458;49.728;9.228;2023-11-19T03:26:07;9.70;99.90
2897;DHT22;1458;49.728;9.228;2023-11-19T03:28:35;9.80;99.90
2897;DHT22;1458;49.728;9.228;2023-11-19T03:31:04;9.70;99.90
2897;DHT22;1458;49.728;9.228;2023-11-19T03:33:34;9.80;99.90
2897;DHT22;1458;49.728;9.228;2023-11-19T03:36:05;9.80;99.90
2897;DHT22;1458;49.728;9.228;2023-11-19T03:38:33;9.80;99.90
2897;DHT22;1458;49.728;9.228;2023-11-19T03:41:09;9.80;99.90
2897;DHT22;1458;49.728;9.228;2023-11-19T03:43:38;9.90;99.90
2897;DHT22;1458;49.728;9.228;2023-11-19T03:46:16;10.00;99.90
2897;DHT22;1458;49.728;9.228;2023-11-19T03:48:44;10.00;99.90
2897;DHT22;1458;49.728;9.228;2023-11-19T03:51:14;10.00;99.90
2897;DHT22;1458;49.728;9.228;2023-11-19T03:53:42;10.00;99.90
2897;DHT22;1458;49.728;9.228;2023-11-19T03:56:10;9.90;99.90
2897;DHT22;1458;49.728;9.228;2023-11-19T03:58:38;10.20;99.90
2897;DHT22;1458;49.728;9.228;2023-11-19T04:01:11;10.20;99.90
2897;DHT22;1458;49.728;9.228;2023-11-19T04:03:39;10.10;99.90
2897;DHT22;1458;49.728;9.228;2023-11-19T04:06:07;10.10;99.90
2897;DHT22;1458;49.728;9.228;2023-11-19T04:08:37;10.10;99.90
2897;DHT22;1458;49.728;9.228;2023-11-19T04:11:04;10.10;99.90
2897;DHT22;1458;49.728;9.228;2023-11-19T04:13:32;10.10;99.90
2897;DHT22;1458;49.728;9.228;2023-11-19T04:16:00;10.10;99.90
2897;DHT22;1458;49.728;9.228;2023-11-19T04:18:27;10.10;99.90
2897;DHT22;1458;49.728;9.228;2023-11-19T04:20:55;10.00;99.90
2897;DHT22;1458;49.728;9.228;2023-11-19T04:23:22;10.10;99.90
2897;DHT22;1458;49.728;9.228;2023-11-19T04:25:52;10.00;99.90
2897;DHT22;1458;49.728;9.228;2023-11-19T04:28:19;10.10;99.90
2897;DHT22;1458;49.728;9.228;2023-11-19T04:30:48;10.20;99.90
2897;DHT22;1458;49.728;9.228;2023-11-19T04:33:15;10.20;99.90
2897;DHT22;1458;49.728;9.228;2023-11-19T04:35:42;10.30;99.90
2897;DHT22;1458;49.728;9.228;2023-11-19T04:38:10;10.30;99.90
2897;DHT22;1458;49.728;9.228;2023-11-19T04:40:37;10.30;99.90
2897;DHT22;1458;49.728;9.228;2023-11-19T04:43:06;10.30;99.90
2897;DHT22;1458;49.728;9.228;2023-11-19T04:45:33;10.40;99.90
2897;DHT22;1458;49.728;9.228;2023-11-19T04:48:01;10.50;99.90
2897;DHT22;1458;49.728;9.228;2023-11-19T04:50:28;10.50;99.90
2897;DHT22;1458;49.728;9.228;2023-11-19T04:52:56;10.50;99.90
2897;DHT22;1458;49.728;9.228;2023-11-19T04:55:23;10.60;99.90
2897;DHT22;1458;49.728;9.228;2023-11-19T04:57:53;10.50;99.90
2897;DHT22;1458;49.728;9.228;2023-11-19T05:00:22;10.50;99.90
2897;DHT22;1458;49.728;9.228;2023-11-19T05:02:49;10.50;99.90
2897;DHT22;1458;49.728;9.228;2023-11-19T05:05:17;10.50;99.90
2897;DHT22;1458;49.728;9.228;2023-11-19T05:07:44;10.60;99.90
2897;DHT22;1458;49.728;9.228;2023-11-19T05:10:12;10.60;99.90
2897;DHT22;1458;49.728;9.228;2023-11-19T05:12:39;10.60;99.90
2897;DHT22;1458;49.728;9.228;2023-11-19T05:15:07;10.60;99.90
2897;DHT22;1458;49.728;9.228;2023-11-19T05:17:36;10.60;99.90
2897;DHT22;1458;49.728;9.228;2023-11-19T05:20:05;10.60;99.90
2897;DHT22;1458;49.728;9.228;2023-11-19T05:22:39;10.60;99.90
2897;DHT22;1458;49.728;9.228;2023-11-19T05:25:07;10.80;99.90
2897;DHT22;1458;49.728;9.228;2023-11-19T05:27:36;10.70;99.90
2897;DHT22;1458;49.728;9.228;2023-11-19T05:30:06;10.80;99.90
2897;DHT22;1458;49.728;9.228;2023-11-19T05:32:37;10.90;99.90
2897;DHT22;1458;49.728;9.228;2023-11-19T05:35:05;10.90;99.90
2897;DHT22;1458;49.728;9.228;2023-11-19T05:37:34;10.90;99.90
2897;DHT22;1458;49.728;9.228;2023-11-19T05:40:02;10.90;99.90
2897;DHT22;1458;49.728;9.228;2023-11-19T05:42:32;11.20;99.90
2897;DHT22;1458;49.728;9.228;2023-11-19T05:44:59;11.20;99.90
2897;DHT22;1458;49.728;9.228;2023-11-19T05:47:27;11.20;99.90
2897;DHT22;1458;49.728;9.228;2023-11-19T05:49:55;11.30;99.90
2897;DHT22;1458;49.728;9.228;2023-11-19T05:52:24;11.20;99.90
2897;DHT22;1458;49.728;9.228;2023-11-19T05:54:51;11.10;99.90
2897;DHT22;1458;49.728;9.228;2023-11-19T05:57:18;11.10;99.90
2897;DHT22;1458;49.728;9.228;2023-11-19T05:59:51;11.20;99.90
2897;DHT22;1458;49.728;9.228;2023-11-19T06:02:19;11.10;99.90
2897;DHT22;1458;49.728;9.228;2023-11-19T06:04:47;11.20;99.90
2897;DHT22;1458;49.728;9.228;2023-11-19T06:07:16;11.20;99.90
2897;DHT22;1458;49.728;9.228;2023-11-19T06:09:44;11.20;99.90
2897;DHT22;1458;49.728;9.228;2023-11-19T06:12:11;11.10;99.90
2897;DHT22;1458;49.728;9.228;2023-11-19T06:14:45;11.10;99.90
2897;DHT22;1458;49.728;9.228;2023-11-19T06:17:12;11.30;99.90
2897;DHT22;1458;49.728;9.228;2023-11-19T06:19:39;11.20;99.90
2897;DHT22;1458;49.728;9.228;2023-11-19T06:22:07;11.20;99.90
2897;DHT22;1458;49.728;9.228;2023-11-19T06:24:36;11.30;99.90
2897;DHT22;1458;49.728;9.228;2023-11-19T06:27:03;11.30;99.90
2897;DHT22;1458;49.728;9.228;2023-11-19T06:29:31;11.30;99.90
2897;DHT22;1458;49.728;9.228;2023-11-19T06:31:58;11.30;99.90
2897;DHT22;1458;49.728;9.228;2023-11-19T06:34:26;11.30;99.90
2897;DHT22;1458;49.728;9.228;2023-11-19T06:36:55;11.30;99.90
2897;DHT22;1458;49.728;9.228;2023-11-19T06:39:26;11.30;99.90
2897;DHT22;1458;49.728;9.228;2023-11-19T06:41:55;11.20;99.90
2897;DHT22;1458;49.728;9.228;2023-11-19T06:44:23;11.20;99.90
2897;DHT22;1458;49.728;9.228;2023-11-19T06:46:51;11.20;99.90
2897;DHT22;1458;49.728;9.228;2023-11-19T06:49:19;11.20;99.90
2897;DHT22;1458;49.728;9.228;2023-11-19T06:51:47;11.20;99.90
2897;DHT22;1458;49.728;9.228;2023-11-19T06:54:14;11.20;99.90
2897;DHT22;1458;49.728;9.228;2023-11-19T06:56:42;11.20;99.90
2897;DHT22;1458;49.728;9.228;2023-11-19T06:59:10;11.20;99.90
2897;DHT22;1458;49.728;9.228;2023-11-19T07:01:38;11.20;99.90
2897;DHT22;1458;49.728;9.228;2023-11-19T07:04:10;11.20;99.90
2897;DHT22;1458;49.728;9.228;2023-11-19T07:06:38;11.20;99.90
2897;DHT22;1458;49.728;9.228;2023-11-19T07:09:06;11.30;99.90
2897;DHT22;1458;49.728;9.228;2023-11-19T07:11:36;11.30;99.90
2897;DHT22;1458;49.728;9.228;2023-11-19T07:14:05;11.40;99.90
2897;DHT22;1458;49.728;9.228;2023-11-19T07:16:34;11.40;99.90
2897;DHT22;1458;49.728;9.228;2023-11-19T07:19:03;11.50;99.90
2897;DHT22;1458;49.728;9.228;2023-11-19T07:21:31;11.50;99.90
2897;DHT22;1458;49.728;9.228;2023-11-19T07:23:59;11.50;99.90
2897;DHT22;1458;49.728;9.228;2023-11-19T07:26:27;11.60;99.90
2897;DHT22;1458;49.728;9.228;2023-11-19T07:28:54;11.70;99.90
2897;DHT22;1458;49.728;9.228;2023-11-19T07:31:23;11.80;99.90
2897;DHT22;1458;49.728;9.228;2023-11-19T07:33:52;11.80;99.90
2897;DHT22;1458;49.728;9.228;2023-11-19T07:36:19;11.90;99.90
2897;DHT22;1458;49.728;9.228;2023-11-19T07:38:47;12.10;99.90
2897;DHT22;1458;49.728;9.228;2023-11-19T07:41:15;12.10;99.90
2897;DHT22;1458;49.728;9.228;2023-11-19T07:43:43;12.10;99.90
2897;DHT22;1458;49.728;9.228;2023-11-19T07:46:12;12.20;99.90
2897;DHT22;1458;49.728;9.228;2023-11-19T07:48:40;12.20;99.90
2897;DHT22;1458;49.728;9.228;2023-11-19T07:51:11;12.10;99.90
2897;DHT22;1458;49.728;9.228;2023-11-19T07:53:42;12.20;99.90
2897;DHT22;1458;49.728;9.228;2023-11-19T07:56:10;12.20;99.90
2897;DHT22;1458;49.728;9.228;2023-11-19T07:58:37;12.20;99.90
2897;DHT22;1458;49.728;9.228;2023-11-19T08:01:05;12.10;99.90
2897;DHT22;1458;49.728;9.228;2023-11-19T08:03:36;12.00;99.90
2897;DHT22;1458;49.728;9.228;2023-11-19T08:06:04;11.90;99.90
2897;DHT22;1458;49.728;9.228;2023-11-19T08:08:36;12.00;99.90
2897;DHT22;1458;49.728;9.228;2023-11-19T08:11:05;12.10;99.90
2897;DHT22;1458;49.728;9.228;2023-11-19T08:13:33;12.10;99.90
2897;DHT22;1458;49.728;9.228;2023-11-19T08:16:00;12.10;99.90
2897;DHT22;1458;49.728;9.228;2023-11-19T08:18:28;12.10;99.90
2897;DHT22;1458;49.728;9.228;2023-11-19T08:20:55;12.10;99.90
2897;DHT22;1458;49.728;9.228;2023-11-19T08:23:24;12.20;99.90
2897;DHT22;1458;49.728;9.228;2023-11-19T08:25:53;12.10;99.90
2897;DHT22;1458;49.728;9.228;2023-11-19T08:28:20;12.10;99.90
2897;DHT22;1458;49.728;9.228;2023-11-19T08:30:47;12.20;99.90
2897;DHT22;1458;49.728;9.228;2023-11-19T08:33:15;12.10;99.90
2897;DHT22;1458;49.728;9.228;2023-11-19T08:35:42;12.20;99.90
2897;DHT22;1458;49.728;9.228;2023-11-19T08:38:10;12.30;99.90
2897;DHT22;1458;49.728;9.228;2023-11-19T08:40:38;12.30;99.90
2897;DHT22;1458;49.728;9.228;2023-11-19T08:43:07;12.50;99.90
2897;DHT22;1458;49.728;9.228;2023-11-19T08:45:34;12.50;99.90
2897;DHT22;1458;49.728;9.228;2023-11-19T08:48:02;12.40;99.90
2897;DHT22;1458;49.728;9.228;2023-11-19T08:50:29;12.40;99.90
2897;DHT22;1458;49.728;9.228;2023-11-19T08:52:57;12.60;99.90
2897;DHT22;1458;49.728;9.228;2023-11-19T08:55:24;12.70;99.90
2897;DHT22;1458;49.728;9.228;2023-11-19T08:57:52;12.80;99.90
2897;DHT22;1458;49.728;9.228;2023-11-19T09:00:20;12.80;99.90
2897;DHT22;1458;49.728;9.228;2023-11-19T09:02:48;13.00;99.90
2897;DHT22;1458;49.728;9.228;2023-11-19T09:05:15;13.10;99.90
2897;DHT22;1458;49.728;9.228;2023-11-19T09:07:43;13.10;99.90
2897;DHT22;1458;49.728;9.228;2023-11-19T09:10:10;13.30;99.90
2897;DHT22;1458;49.728;9.228;2023-11-19T09:12:41;13.40;99.90
2897;DHT22;1458;49.728;9.228;2023-11-19T09:15:09;13.50;99.90
2897;DHT22;1458;49.728;9.228;2023-11-19T09:17:39;13.60;99.90
2897;DHT22;1458;49.728;9.228;2023-11-19T09:20:07;13.70;99.90
2897;DHT22;1458;49.728;9.228;2023-11-19T09:22:37;13.60;99.90
2897;DHT22;1458;49.728;9.228;2023-11-19T09:25:05;13.60;99.90
2897;DHT22;1458;49.728;9.228;2023-11-19T09:27:33;13.70;99.90
2897;DHT22;1458;49.728;9.228;2023-11-19T09:30:01;13.60;99.90
2897;DHT22;1458;49.728;9.228;2023-11-19T09:32:29;13.60;99.90
2897;DHT22;1458;49.728;9.228;2023-11-19T09:35:00;13.60;99.90
2897;DHT22;1458;49.728;9.228;2023-11-19T09:37:28;13.80;99.90
2897;DHT22;1458;49.728;9.228;2023-11-19T09:39:56;14.10;99.90
2897;DHT22;1458;49.728;9.228;2023-11-19T09:42:24;14.40;99.90
2897;DHT22;1458;49.728;9.228;2023-11-19T09:44:53;14.50;99.90
2897;DHT22;1458;49.728;9.228;2023-11-19T09:47:23;14.60;99.90
2897;DHT22;1458;49.728;9.228;2023-11-19T09:49:55;14.80;99.30
2897;DHT22;1458;49.728;9.228;2023-11-19T09:52:24;14.70;97.70
2897;DHT22;1458;49.728;9.228;2023-11-19T09:54:52;14.50;98.80
2897;DHT22;1458;49.728;9.228;2023-11-19T09:57:19;14.60;99.00
2897;DHT22;1458;49.728;9.228;2023-11-19T09:59:47;14.70;97.70
2897;DHT22;1458;49.728;9.228;2023-11-19T10:02:15;14.60;97.30
2897;DHT22;1458;49.728;9.228;2023-11-19T10:04:45;14.60;97.00
2897;DHT22;1458;49.728;9.228;2023-11-19T10:07:15;14.50;96.60
2897;DHT22;1458;49.728;9.228;2023-11-19T10:09:42;14.30;95.90
2897;DHT22;1458;49.728;9.228;2023-11-19T10:12:12;14.10;97.20
2897;DHT22;1458;49.728;9.228;2023-11-19T10:14:40;13.80;96.80
2897;DHT22;1458;49.728;9.228;2023-11-19T10:17:08;13.60;98.00
2897;DHT22;1458;49.728;9.228;2023-11-19T10:19:36;13.70;97.50
2897;DHT22;1458;49.728;9.228;2023-11-19T10:22:04;13.90;97.30
2897;DHT22;1458;49.728;9.228;2023-11-19T10:24:34;14.00;96.90
2897;DHT22;1458;49.728;9.228;2023-11-19T10:27:06;14.00;96.90
2897;DHT22;1458;49.728;9.228;2023-11-19T10:29:36;14.10;96.60
2897;DHT22;1458;49.728;9.228;2023-11-19T10:32:05;13.90;98.10
2897;DHT22;1458;49.728;9.228;2023-11-19T10:34:32;13.60;99.90
2897;DHT22;1458;49.728;9.228;2023-11-19T10:37:00;13.40;99.90
2897;DHT22;1458;49.728;9.228;2023-11-19T10:39:52;13.30;99.90
2897;DHT22;1458;49.728;9.228;2023-11-19T10:42:21;13.30;99.90
2897;DHT22;1458;49.728;9.228;2023-11-19T10:44:49;13.40;99.90
2897;DHT22;1458;49.728;9.228;2023-11-19T10:47:19;13.50;99.90
2897;DHT22;1458;49.728;9.228;2023-11-19T10:49:47;13.60;99.90
2897;DHT22;1458;49.728;9.228;2023-11-19T10:52:18;13.70;99.90
2897;DHT22;1458;49.728;9.228;2023-11-19T10:54:49;13.70;99.90
2897;DHT22;1458;49.728;9.228;2023-11-19T10:57:21;13.70;99.90
2897;DHT22;1458;49.728;9.228;2023-11-19T10:59:49;13.70;99.90
2897;DHT22;1458;49.728;9.228;2023-11-19T11:02:22;13.50;99.90
2897;DHT22;1458;49.728;9.228;2023-11-19T11:04:52;13.50;99.90
2897;DHT22;1458;49.728;9.228;2023-11-19T11:07:21;13.40;99.90
2897;DHT22;1458;49.728;9.228;2023-11-19T11:09:52;13.40;99.90
2897;DHT22;1458;49.728;9.228;2023-11-19T11:12:22;13.50;99.90
2897;DHT22;1458;49.728;9.228;2023-11-19T11:14:51;13.80;99.90
2897;DHT22;1458;49.728;9.228;2023-11-19T11:17:24;14.10;99.90
2897;DHT22;1458;49.728;9.228;2023-11-19T11:19:54;14.30;97.50
2897;DHT22;1458;49.728;9.228;2023-11-19T11:22:22;14.30;97.50
2897;DHT22;1458;49.728;9.228;2023-11-19T11:25:06;14.30;96.70
2897;DHT22;1458;49.728;9.228;2023-11-19T11:27:51;14.20;97.00
2897;DHT22;1458;49.728;9.228;2023-11-19T11:30:35;14.20;97.80
2897;DHT22;1458;49.728;9.228;2023-11-19T11:33:30;14.30;98.40
2897;DHT22;1458;49.728;9.228;2023-11-19T11:36:10;14.60;97.70
2897;DHT22;1458;49.728;9.228;2023-11-19T11:38:41;14.80;96.80
2897;DHT22;1458;49.728;9.228;2023-11-19T11:41:19;14.90;94.30
2897;DHT22;1458;49.728;9.228;2023-11-19T11:43:50;14.80;92.50
2897;DHT22;1458;49.728;9.228;2023-11-19T11:46:55;14.60;93.30
2897;DHT22;1458;49.728;9.228;2023-11-19T11:49:26;14.50;93.40
2897;DHT22;1458;49.728;9.228;2023-11-19T11:52:00;14.40;93.00
2897;DHT22;1458;49.728;9.228;2023-11-19T11:54:29;14.40;93.80
2897;DHT22;1458;49.728;9.228;2023-11-19T11:57:06;14.40;93.80
2897;DHT22;1458;49.728;9.228;2023-11-19T11:59:45;14.40;93.30
2897;DHT22;1458;49.728;9.228;2023-11-19T12:02:16;14.60;94.40
2897;DHT22;1458;49.728;9.228;2023-11-19T12:04:47;14.60;92.50
2897;DHT22;1458;49.728;9.228;2023-11-19T12:07:18;14.70;92.00
2897;DHT22;1458;49.728;9.228;2023-11-19T12:09:51;14.80;92.00
2897;DHT22;1458;49.728;9.228;2023-11-19T12:12:23;14.80;90.90
2897;DHT22;1458;49.728;9.228;2023-11-19T12:15:05;14.80;90.70
2897;DHT22;1458;49.728;9.228;2023-11-19T12:17:43;14.90;90.30
2897;DHT22;1458;49.728;9.228;2023-11-19T12:20:16;14.90;90.20
2897;DHT22;1458;49.728;9.228;2023-11-19T12:22:45;15.00;90.10
2897;DHT22;1458;49.728;9.228;2023-11-19T12:25:15;14.90;89.30
2897;DHT22;1458;49.728;9.228;2023-11-19T12:27:45;14.90;87.90
2897;DHT22;1458;49.728;9.228;2023-11-19T12:30:21;14.90;87.90
2897;DHT22;1458;49.728;9.228;2023-11-19T12:32:50;14.90;84.20
2897;DHT22;1458;49.728;9.228;2023-11-19T12:35:19;14.80;86.50
2897;DHT22;1458;49.728;9.228;2023-11-19T12:37:49;14.70;86.60
2897;DHT22;1458;49.728;9.228;2023-11-19T12:40:19;14.70;87.70
2897;DHT22;1458;49.728;9.228;2023-11-19T12:42:47;14.70;87.50
2897;DHT22;1458;49.728;9.228;2023-11-19T12:45:15;14.80;87.10
2897;DHT22;1458;49.728;9.228;2023-11-19T12:47:44;14.90;85.80
2897;DHT22;1458;49.728;9.228;2023-11-19T12:50:13;14.90;86.00
2897;DHT22;1458;49.728;9.228;2023-11-19T12:52:41;14.80;85.80
2897;DHT22;1458;49.728;9.228;2023-11-19T12:55:24;14.80;84.00
2897;DHT22;1458;49.728;9.228;2023-11-19T12:57:52;15.00;83.00
2897;DHT22;1458;49.728;9.228;2023-11-19T13:00:21;15.00;82.40
2897;DHT22;1458;49.728;9.228;2023-11-19T13:02:52;14.90;82.60
2897;DHT22;1458;49.728;9.228;2023-11-19T13:05:24;14.90;82.50
2897;DHT22;1458;49.728;9.228;2023-11-19T13:08:03;14.80;81.70
2897;DHT22;1458;49.728;9.228;2023-11-19T13:10:32;14.70;81.80
2897;DHT22;1458;49.728;9.228;2023-11-19T13:13:05;14.70;83.30
2897;DHT22;1458;49.728;9.228;2023-11-19T13:15:34;14.70;82.10
2897;DHT22;1458;49.728;9.228;2023-11-19T13:18:03;14.60;82.00
2897;DHT22;1458;49.728;9.228;2023-11-19T13:20:32;14.60;83.00
2897;DHT22;1458;49.728;9.228;2023-11-19T13:23:01;14.80;83.10
2897;DHT22;1458;49.728;9.228;2023-11-19T13:25:29;15.00;80.90
2897;DHT22;1458;49.728;9.228;2023-11-19T13:27:58;15.20;80.50
2897;DHT22;1458;49.728;9.228;2023-11-19T13:30:26;15.20;80.40
2897;DHT22;1458;49.728;9.228;2023-11-19T13:32:55;15.00;79.40
2897;DHT22;1458;49.728;9.228;2023-11-19T13:35:23;14.80;80.20
2897;DHT22;1458;49.728;9.228;2023-11-19T13:37:53;14.70;80.10
2897;DHT22;1458;49.728;9.228;2023-11-19T13:40:20;14.70;79.80
2897;DHT22;1458;49.728;9.228;2023-11-19T13:42:50;14.70;77.60
2897;DHT22;1458;49.728;9.228;2023-11-19T13:45:17;14.70;75.90
2897;DHT22;1458;49.728;9.228;2023-11-19T13:47:46;14.60;77.20
2897;DHT22;1458;49.728;9.228;2023-11-19T13:50:15;14.40;77.00
2897;DHT22;1458;49.728;9.228;2023-11-19T13:52:44;14.50;74.60
2897;DHT22;1458;49.728;9.228;2023-11-19T13:55:13;14.40;73.40
2897;DHT22;1458;49.728;9.228;2023-11-19T13:57:42;14.30;73.60
2897;DHT22;1458;49.728;9.228;2023-11-19T14:00:11;14.30;73.50
2897;DHT22;1458;49.728;9.228;2023-11-19T14:02:39;14.30;72.70
2897;DHT22;1458;49.728;9.228;2023-11-19T14:05:07;14.30;71.90
2897;DHT22;1458;49.728;9.228;2023-11-19T14:07:34;14.10;73.10
2897;DHT22;1458;49.728;9.228;2023-11-19T14:10:04;14.10;73.50
2897;DHT22;1458;49.728;9.228;2023-11-19T14:12:32;14.10;73.60
2897;DHT22;1458;49.728;9.228;2023-11-19T14:15:00;14.20;72.80
2897;DHT22;1458;49.728;9.228;2023-11-19T14:17:27;14.20;71.60
2897;DHT22;1458;49.728;9.228;2023-11-19T14:19:55;14.50;69.80
2897;DHT22;1458;49.728;9.228;2023-11-19T14:22:23;14.60;69.10
2897;DHT22;1458;49.728;9.228;2023-11-19T14:24:50;14.60;69.30
2897;DHT22;1458;49.728;9.228;2023-11-19T14:27:19;14.50;69.00
2897;DHT22;1458;49.728;9.228;2023-11-19T14:29:48;14.50;69.00
2897;DHT22;1458;49.728;9.228;2023-11-19T14:32:16;14.40;68.60
2897;DHT22;1458;49.728;9.228;2023-11-19T14:34:44;14.20;69.40
2897;DHT22;1458;49.728;9.228;2023-11-19T14:37:11;14.10;70.40
2897;DHT22;1458;49.728;9.228;2023-11-19T14:39:38;14.10;69.90
2897;DHT22;1458;49.728;9.228;2023-11-19T14:42:06;14.20;69.10
2897;DHT22;1458;49.728;9.228;2023-11-19T14:44:35;14.10;69.80
2897;DHT22;1458;49.728;9.228;2023-11-19T14:47:03;14.20;69.30
2897;DHT22;1458;49.728;9.228;2023-11-19T14:49:31;14.10;70.30
2897;DHT22;1458;49.728;9.228;2023-11-19T14:51:58;14.10;69.40
2897;DHT22;1458;49.728;9.228;2023-11-19T14:54:25;13.90;71.60
2897;DHT22;1458;49.728;9.228;2023-11-19T14:56:53;13.90;72.10
2897;DHT22;1458;49.728;9.228;2023-11-19T14:59:20;13.80;71.60
2897;DHT22;1458;49.728;9.228;2023-11-19T15:01:49;13.70;73.30
2897;DHT22;1458;49.728;9.228;2023-11-19T15:04:16;13.60;74.50
2897;DHT22;1458;49.728;9.228;2023-11-19T15:06:44;13.50;74.70
2897;DHT22;1458;49.728;9.228;2023-11-19T15:09:11;13.40;75.40
2897;DHT22;1458;49.728;9.228;2023-11-19T15:11:42;13.30;77.20
2897;DHT22;1458;49.728;9.228;2023-11-19T15:14:12;13.10;77.70
2897;DHT22;1458;49.728;9.228;2023-11-19T15:16:40;13.00;78.80
2897;DHT22;1458;49.728;9.228;2023-11-19T15:19:09;13.10;78.30
2897;DHT22;1458;49.728;9.228;2023-11-19T15:21:38;13.10;78.10
2897;DHT22;1458;49.728;9.228;2023-11-19T15:24:07;13.10;77.00
2897;DHT22;1458;49.728;9.228;2023-11-19T15:26:35;13.20;76.40
2897;DHT22;1458;49.728;9.228;2023-11-19T15:29:02;13.10;78.80
2897;DHT22;1458;49.728;9.228;2023-11-19T15:31:30;13.30;74.90
2897;DHT22;1458;49.728;9.228;2023-11-19T15:33:58;13.30;73.60
2897;DHT22;1458;49.728;9.228;2023-11-19T15:36:27;13.40;73.70
2897;DHT22;1458;49.728;9.228;2023-11-19T15:38:54;13.30;74.10
2897;DHT22;1458;49.728;9.228;2023-11-19T15:41:21;13.30;73.70
2897;DHT22;1458;49.728;9.228;2023-11-19T15:43:49;13.40;71.20
2897;DHT22;1458;49.728;9.228;2023-11-19T15:46:16;13.60;70.60
2897;DHT22;1458;49.728;9.228;2023-11-19T15:48:44;13.50;70.40
2897;DHT22;1458;49.728;9.228;2023-11-19T15:51:11;13.20;71.30
2897;DHT22;1458;49.728;9.228;2023-11-19T15:53:40;12.90;72.00
2897;DHT22;1458;49.728;9.228;2023-11-19T15:56:09;12.90;72.00
2897;DHT22;1458;49.728;9.228;2023-11-19T15:58:36;12.90;70.80
2897;DHT22;1458;49.728;9.228;2023-11-19T16:01:05;13.10;69.10
2897;DHT22;1458;49.728;9.228;2023-11-19T16:03:34;13.10;67.50
2897;DHT22;1458;49.728;9.228;2023-11-19T16:06:02;13.00;68.30
2897;DHT22;1458;49.728;9.228;2023-11-19T16:08:29;12.80;69.20
2897;DHT22;1458;49.728;9.228;2023-11-19T16:10:59;12.50;70.00
2897;DHT22;1458;49.728;9.228;2023-11-19T16:13:26;12.30;70.40
2897;DHT22;1458;49.728;9.228;2023-11-19T16:15:54;12.20;71.90